createdAt,value
2017-10-24T00:01:05.420Z,14.60
2017-10-24T00:03:33.673Z,14.30
2017-10-24T00:06:01.973Z,17.40
2017-10-24T00:08:30.354Z,15.67
2017-10-24T00:10:58.737Z,15.13
2017-10-24T00:13:28.189Z,14.20
2017-10-24T00:15:56.474Z,15.50
2017-10-24T00:18:24.754Z,14.07
2017-10-24T00:20:53.044Z,13.33
2017-10-24T00:23:21.305Z,15.47
2017-10-24T00:25:49.644Z,12.63
2017-10-24T00:28:18.008Z,13.23
2017-10-24T00:30:46.393Z,14.53
2017-10-24T00:33:15.465Z,14.43
2017-10-24T00:35:43.728Z,12.30
2017-10-24T00:38:12.052Z,12.97
2017-10-24T00:40:40.335Z,13.93
2017-10-24T00:43:08.692Z,13.83
2017-10-24T00:45:37.820Z,13.20
2017-10-24T00:48:06.868Z,10.83
2017-10-24T00:50:35.168Z,16.90
2017-10-24T00:53:03.536Z,11.60
2017-10-24T00:55:31.918Z,11.60
2017-10-24T00:58:00.247Z,14.17
2017-10-24T01:00:29.290Z,15.67
2017-10-24T01:02:57.577Z,12.20
2017-10-24T01:05:25.970Z,14.60
2017-10-24T01:07:54.220Z,15.13
2017-10-24T01:10:22.525Z,9.83
2017-10-24T01:12:50.787Z,12.07
2017-10-24T01:15:19.177Z,17.77
2017-10-24T01:17:48.981Z,12.63
2017-10-24T01:20:17.274Z,11.03
2017-10-24T01:22:45.599Z,14.03
2017-10-24T01:25:14.655Z,14.93
2017-10-24T01:27:42.913Z,9.40
2017-10-24T01:30:11.244Z,14.70
2017-10-24T01:32:39.511Z,15.47
2017-10-24T01:35:07.791Z,11.17
2017-10-24T01:37:36.077Z,16.53
2017-10-24T01:40:04.343Z,12.17
2017-10-24T01:42:32.640Z,12.40
2017-10-24T01:45:00.903Z,15.00
2017-10-24T01:47:29.293Z,11.73
2017-10-24T01:49:59.072Z,14.40
2017-10-24T01:52:27.369Z,13.83
2017-10-24T01:54:55.651Z,18.57
2017-10-24T01:57:23.930Z,12.60
2017-10-24T01:59:53.001Z,14.27
2017-10-24T02:02:21.285Z,13.97
2017-10-24T02:04:49.556Z,10.60
2017-10-24T02:07:17.838Z,14.60
2017-10-24T02:09:46.117Z,18.63
2017-10-24T02:12:15.217Z,10.10
2017-10-24T02:14:43.599Z,13.70
2017-10-24T02:17:11.858Z,11.53
2017-10-24T02:19:40.950Z,17.90
2017-10-24T02:22:09.218Z,15.87
2017-10-24T02:24:37.612Z,15.33
2017-10-24T02:27:06.643Z,15.27
2017-10-24T02:29:34.979Z,18.43
2017-10-24T02:32:03.256Z,17.30
2017-10-24T02:34:31.544Z,14.50
2017-10-24T02:36:59.924Z,13.80
2017-10-24T02:39:28.967Z,16.17
2017-10-24T02:41:57.277Z,15.20
2017-10-24T02:44:25.536Z,20.67
2017-10-24T02:46:53.854Z,17.83
2017-10-24T02:49:22.134Z,13.40
2017-10-24T02:51:50.428Z,20.33
2017-10-24T02:54:18.715Z,16.80
2017-10-24T02:56:47.005Z,17.90
2017-10-24T02:59:15.280Z,18.70
2017-10-24T03:01:43.561Z,21.10
2017-10-24T03:04:11.856Z,16.30
2017-10-24T03:06:40.918Z,14.73
2017-10-24T03:09:09.210Z,19.33
2017-10-24T03:11:37.589Z,18.30
2017-10-24T03:14:05.869Z,17.73
2017-10-24T03:16:34.154Z,24.17
2017-10-24T03:19:03.215Z,16.00
2017-10-24T03:21:31.505Z,21.13
2017-10-24T03:23:59.787Z,18.10
2017-10-24T03:26:28.176Z,23.30
2017-10-24T03:28:56.546Z,24.80
2017-10-24T03:31:24.831Z,21.87
2017-10-24T03:33:53.093Z,19.50
2017-10-24T03:36:21.479Z,17.53
2017-10-24T03:38:51.257Z,12.13
2017-10-24T03:41:19.519Z,13.43
2017-10-24T03:43:47.800Z,21.07
2017-10-24T03:46:16.212Z,15.33
2017-10-24T03:48:44.597Z,16.23
2017-10-24T03:51:12.864Z,15.23
2017-10-24T03:53:41.164Z,16.10
2017-10-24T03:56:09.485Z,16.10
2017-10-24T03:58:37.805Z,16.63
2017-10-24T04:01:07.568Z,11.73
2017-10-24T04:03:35.924Z,15.53
2017-10-24T04:06:04.196Z,13.70
2017-10-24T04:08:32.478Z,16.30
2017-10-24T04:11:00.750Z,17.70
2017-10-24T04:13:30.553Z,16.93
2017-10-24T04:15:58.803Z,17.17
2017-10-24T04:18:27.076Z,15.50
2017-10-24T04:20:55.341Z,16.20
2017-10-24T04:23:23.642Z,18.00
2017-10-24T04:25:51.925Z,16.27
2017-10-24T04:28:20.196Z,17.93
2017-10-24T04:30:48.480Z,16.93
2017-10-24T04:33:16.794Z,13.67
2017-10-24T04:35:45.055Z,20.20
2017-10-24T04:38:13.345Z,19.63
2017-10-24T04:40:41.639Z,21.30
2017-10-24T04:43:09.934Z,21.97
2017-10-24T04:45:38.193Z,18.83
2017-10-24T04:48:08.609Z,23.70
2017-10-24T04:50:37.262Z,22.30
2017-10-24T04:53:05.644Z,25.87
2017-10-24T04:55:33.941Z,18.17
2017-10-24T04:58:02.977Z,28.20
2017-10-24T05:00:31.293Z,25.50
2017-10-24T05:02:59.677Z,22.37
2017-10-24T05:05:27.954Z,29.77
2017-10-24T05:07:56.233Z,27.87
2017-10-24T05:10:25.429Z,28.70
2017-10-24T05:12:53.735Z,27.20
2017-10-24T05:15:22.783Z,33.87
2017-10-24T05:17:51.077Z,38.90
2017-10-24T05:20:19.353Z,30.93
2017-10-24T05:22:47.665Z,20.27
2017-10-24T05:25:16.725Z,18.40
2017-10-24T05:27:45.025Z,25.80
2017-10-24T05:30:14.572Z,24.73
2017-10-24T05:32:43.785Z,23.27
2017-10-24T05:35:13.370Z,24.03
2017-10-24T05:37:41.701Z,25.00
2017-10-24T05:40:10.790Z,21.77
2017-10-24T05:42:39.077Z,19.40
2017-10-24T05:45:07.380Z,24.00
2017-10-24T05:47:36.439Z,27.23
2017-10-24T05:50:04.829Z,24.20
2017-10-24T05:52:33.113Z,25.80
2017-10-24T05:55:01.436Z,18.67
2017-10-24T05:57:29.758Z,24.83
2017-10-24T05:59:58.041Z,27.97
2017-10-24T06:02:27.824Z,32.83
2017-10-24T06:04:56.392Z,21.73
2017-10-24T06:07:24.658Z,18.10
2017-10-24T06:09:53.298Z,22.30
2017-10-24T06:12:23.111Z,24.13
2017-10-24T06:14:51.402Z,22.90
2017-10-24T06:17:19.676Z,22.27
2017-10-24T06:19:48.118Z,20.67
2017-10-24T06:22:16.676Z,22.07
2017-10-24T06:24:45.003Z,18.17
2017-10-24T06:27:13.275Z,16.27
2017-10-24T06:29:41.656Z,18.30
2017-10-24T06:32:10.710Z,23.97
2017-10-24T06:34:39.000Z,29.20
2017-10-24T06:37:07.274Z,19.03
2017-10-24T06:39:36.329Z,24.13
2017-10-24T06:42:04.602Z,21.30
2017-10-24T06:44:32.884Z,23.97
2017-10-24T06:47:02.692Z,21.67
2017-10-24T06:49:30.981Z,24.27
2017-10-24T06:52:00.064Z,22.93
2017-10-24T06:54:28.354Z,18.80
2017-10-24T06:56:57.384Z,21.90
2017-10-24T06:59:25.669Z,17.20
2017-10-24T07:01:53.931Z,17.37
2017-10-24T07:04:22.218Z,17.80
2017-10-24T07:06:50.489Z,17.73
2017-10-24T07:09:18.771Z,17.27
2017-10-24T07:11:47.038Z,20.90
2017-10-24T07:14:15.329Z,17.90
2017-10-24T07:16:43.597Z,17.97
2017-10-24T07:19:11.903Z,18.63
2017-10-24T07:21:41.725Z,19.50
2017-10-24T07:24:10.088Z,23.20
2017-10-24T07:26:38.353Z,18.53
2017-10-24T07:29:06.658Z,20.53
2017-10-24T07:31:35.693Z,18.47
2017-10-24T07:34:04.030Z,18.63
2017-10-24T07:36:32.296Z,19.20
2017-10-24T07:39:00.570Z,20.30
2017-10-24T07:41:28.853Z,21.10
2017-10-24T07:43:57.145Z,20.07
2017-10-24T07:46:25.436Z,22.63
2017-10-24T07:48:54.497Z,27.60
2017-10-24T07:51:22.797Z,18.70
2017-10-24T07:53:51.074Z,23.27
2017-10-24T07:56:19.480Z,22.67
2017-10-24T07:58:47.758Z,27.70
2017-10-24T08:01:16.809Z,19.37
2017-10-24T08:03:45.196Z,22.73
2017-10-24T08:06:14.260Z,18.80
2017-10-24T08:08:42.520Z,18.83
2017-10-24T08:11:10.811Z,16.03
2017-10-24T08:13:39.072Z,20.17
2017-10-24T08:16:07.375Z,28.27
2017-10-24T08:18:35.648Z,25.20
2017-10-24T08:21:03.956Z,26.57
2017-10-24T08:23:32.208Z,27.00
2017-10-24T08:26:00.584Z,26.13
2017-10-24T08:28:28.978Z,27.33
2017-10-24T08:30:57.350Z,21.57
2017-10-24T08:33:26.404Z,18.57
2017-10-24T08:35:54.695Z,24.23
2017-10-24T08:38:22.988Z,23.30
2017-10-24T08:40:51.378Z,18.50
2017-10-24T08:43:19.649Z,24.40
2017-10-24T08:45:47.925Z,21.00
2017-10-24T08:48:16.305Z,20.90
2017-10-24T08:50:44.583Z,21.10
2017-10-24T08:53:12.860Z,21.20
2017-10-24T08:55:41.918Z,18.37
2017-10-24T08:58:10.215Z,18.97
2017-10-24T09:00:38.494Z,21.63
2017-10-24T09:03:06.879Z,19.63
2017-10-24T09:05:36.930Z,20.40
2017-10-24T09:08:14.690Z,26.40
2017-10-24T09:14:02.752Z,16.97
2017-10-24T09:19:43.323Z,23.87
2017-10-24T09:22:21.461Z,20.07
2017-10-24T09:24:49.824Z,21.93
2017-10-24T09:27:18.118Z,22.20
2017-10-24T09:29:46.379Z,23.53
2017-10-24T09:32:14.671Z,21.60
2017-10-24T09:34:42.962Z,20.87
2017-10-24T09:37:11.247Z,16.20
2017-10-24T09:39:40.307Z,14.40
2017-10-24T09:42:08.606Z,24.50
2017-10-24T09:44:36.877Z,19.07
2017-10-24T09:47:05.167Z,18.00
2017-10-24T09:49:34.233Z,15.77
2017-10-24T09:52:02.518Z,17.97
2017-10-24T09:54:45.744Z,15.87
2017-10-24T09:57:14.032Z,12.27
2017-10-24T09:59:42.425Z,16.23
2017-10-24T10:02:11.499Z,13.13
2017-10-24T10:04:39.789Z,14.07
2017-10-24T10:07:11.038Z,14.63
2017-10-24T10:09:39.299Z,12.43
2017-10-24T10:12:09.445Z,12.53
2017-10-24T10:14:37.716Z,13.80
2017-10-24T10:17:06.005Z,15.00
2017-10-24T10:19:35.038Z,11.00
2017-10-24T10:22:05.288Z,16.27
2017-10-24T10:24:36.369Z,14.87
2017-10-24T10:27:05.532Z,19.57
2017-10-24T10:29:33.806Z,14.83
2017-10-24T10:32:02.100Z,10.90
2017-10-24T10:34:30.388Z,12.70
2017-10-24T10:36:59.449Z,13.77
2017-10-24T10:39:27.729Z,12.87
2017-10-24T10:41:55.999Z,13.63
2017-10-24T10:44:24.304Z,17.83
2017-10-24T10:46:52.562Z,12.70
2017-10-24T10:49:20.872Z,13.40
2017-10-24T10:51:49.916Z,11.27
2017-10-24T10:54:18.222Z,14.07
2017-10-24T10:56:46.504Z,13.23
2017-10-24T10:59:14.882Z,13.13
2017-10-24T11:01:43.167Z,11.63
2017-10-24T11:04:11.539Z,11.23
2017-10-24T11:06:39.839Z,11.63
2017-10-24T11:09:08.121Z,9.00
2017-10-24T11:11:37.146Z,10.40
2017-10-24T11:14:05.424Z,9.43
2017-10-24T11:16:33.732Z,8.50
2017-10-24T11:19:02.019Z,7.53
2017-10-24T11:21:30.326Z,7.17
2017-10-24T11:23:59.383Z,11.00
2017-10-24T11:26:27.710Z,9.73
2017-10-24T11:28:56.757Z,10.63
2017-10-24T11:31:25.024Z,8.80
2017-10-24T11:33:53.312Z,8.47
2017-10-24T11:36:21.598Z,6.73
2017-10-24T11:38:49.909Z,6.70
2017-10-24T11:41:18.942Z,5.07
2017-10-24T11:43:47.340Z,5.10
2017-10-24T11:46:15.597Z,6.10
2017-10-24T11:48:43.961Z,6.20
2017-10-24T11:51:12.231Z,5.47
2017-10-24T11:53:40.512Z,6.43
2017-10-24T11:56:08.782Z,3.73
2017-10-24T11:58:37.094Z,7.50
2017-10-24T12:01:05.361Z,7.70
2017-10-24T12:03:33.649Z,5.63
2017-10-24T12:06:01.919Z,3.93
2017-10-24T12:08:30.197Z,6.50
2017-10-24T12:10:58.459Z,3.90
2017-10-24T12:13:26.746Z,3.63
2017-10-24T12:15:55.212Z,4.80
2017-10-24T12:18:23.484Z,7.70
2017-10-24T12:20:51.732Z,4.67
2017-10-24T12:23:20.148Z,5.17
2017-10-24T12:25:48.407Z,5.90
2017-10-24T12:28:16.811Z,6.83
2017-10-24T12:30:45.060Z,4.73
2017-10-24T12:33:13.364Z,4.53
2017-10-24T12:35:41.640Z,6.07
2017-10-24T12:38:09.915Z,7.00
2017-10-24T12:40:38.181Z,6.50
2017-10-24T12:43:06.449Z,4.83
2017-10-24T12:45:34.722Z,7.17
2017-10-24T12:48:03.007Z,4.63
2017-10-24T12:50:33.807Z,4.27
2017-10-24T12:53:02.085Z,6.83
2017-10-24T12:55:30.349Z,5.30
2017-10-24T12:57:58.644Z,5.50
2017-10-24T13:00:26.958Z,5.37
2017-10-24T13:02:55.231Z,5.73
2017-10-24T13:05:25.951Z,7.00
2017-10-24T13:07:54.213Z,6.77
2017-10-24T13:10:22.508Z,5.87
2017-10-24T13:12:50.799Z,6.57
2017-10-24T13:15:19.074Z,7.47
2017-10-24T13:17:47.339Z,8.80
2017-10-24T13:20:15.634Z,6.37
2017-10-24T13:22:44.068Z,8.40
2017-10-24T13:25:12.346Z,7.43
2017-10-24T13:27:40.618Z,7.37
2017-10-24T13:30:09.670Z,7.53
2017-10-24T13:32:37.941Z,9.67
2017-10-24T13:35:06.237Z,6.97
2017-10-24T13:37:34.498Z,4.90
2017-10-24T13:40:02.808Z,8.73
2017-10-24T13:42:31.068Z,8.70
2017-10-24T13:44:59.373Z,5.63
2017-10-24T13:47:28.414Z,7.33
2017-10-24T13:49:56.712Z,9.27
2017-10-24T13:52:26.498Z,7.23
2017-10-24T13:54:54.886Z,7.50
2017-10-24T13:57:23.148Z,7.30
2017-10-24T13:59:51.436Z,6.57
2017-10-24T14:02:19.700Z,5.90
2017-10-24T14:04:53.692Z,10.33
2017-10-24T14:07:27.817Z,6.63
2017-10-24T14:10:01.929Z,5.60
2017-10-24T14:12:30.201Z,8.17
2017-10-24T14:14:58.505Z,7.40
2017-10-24T14:17:26.763Z,8.93
2017-10-24T14:19:55.154Z,8.10
2017-10-24T14:22:23.416Z,8.73
2017-10-24T14:24:51.817Z,10.17
2017-10-24T14:27:20.184Z,8.13
2017-10-24T14:29:48.561Z,9.13
2017-10-24T14:32:16.830Z,8.07
2017-10-24T14:34:45.124Z,8.37
2017-10-24T14:37:13.507Z,7.30
2017-10-24T14:39:41.884Z,7.03
2017-10-24T14:42:10.275Z,7.53
2017-10-24T14:44:38.554Z,11.40
2017-10-24T14:47:06.910Z,8.20
2017-10-24T14:49:35.173Z,9.33
2017-10-24T14:52:03.469Z,10.20
2017-10-24T14:54:31.848Z,11.83
2017-10-24T14:57:00.145Z,10.57
2017-10-24T14:59:28.401Z,8.43
2017-10-24T15:01:56.705Z,7.90
2017-10-24T15:04:25.738Z,11.07
2017-10-24T15:06:54.036Z,11.00
2017-10-24T15:09:22.322Z,14.90
2017-10-24T15:11:50.613Z,13.63
2017-10-24T15:14:18.982Z,11.23
2017-10-24T15:16:47.263Z,9.50
2017-10-24T15:19:15.540Z,8.53
2017-10-24T15:21:43.921Z,11.47
2017-10-24T15:24:12.309Z,12.77
2017-10-24T15:26:40.683Z,11.83
2017-10-24T15:29:08.978Z,12.60
2017-10-24T15:31:37.277Z,12.97
2017-10-24T15:34:05.649Z,13.13
2017-10-24T15:36:34.698Z,16.17
2017-10-24T15:39:02.961Z,11.83
2017-10-24T15:41:31.261Z,15.17
2017-10-24T15:43:59.528Z,13.77
2017-10-24T15:46:27.820Z,16.90
2017-10-24T15:48:56.197Z,14.13
2017-10-24T15:51:24.481Z,22.60
2017-10-24T15:53:52.845Z,14.87
2017-10-24T15:56:21.125Z,18.30
2017-10-24T15:58:50.914Z,15.63
2017-10-24T16:01:19.345Z,16.17
2017-10-24T16:03:48.397Z,15.70
2017-10-24T16:06:16.726Z,20.77
2017-10-24T16:08:45.089Z,17.33
2017-10-24T16:11:13.378Z,16.77
2017-10-24T16:13:41.654Z,18.90
2017-10-24T16:16:09.936Z,16.43
2017-10-24T16:18:39.037Z,13.90
2017-10-24T16:21:08.093Z,18.87
2017-10-24T16:23:36.398Z,23.53
2017-10-24T16:26:05.481Z,18.57
2017-10-24T16:28:33.946Z,15.60
2017-10-24T16:31:02.330Z,15.70
2017-10-24T16:33:30.619Z,18.00
2017-10-24T16:35:58.931Z,14.70
2017-10-24T16:38:27.274Z,17.83
2017-10-24T16:40:55.644Z,14.47
2017-10-24T16:43:23.915Z,15.97
2017-10-24T16:45:52.230Z,15.93
2017-10-24T16:48:21.267Z,15.47
2017-10-24T16:50:49.566Z,17.50
2017-10-24T16:53:17.854Z,15.17
2017-10-24T16:55:46.219Z,13.20
2017-10-24T16:58:14.513Z,14.80
2017-10-24T17:00:42.797Z,14.97
2017-10-24T17:03:11.073Z,15.77
2017-10-24T17:05:39.396Z,14.03
2017-10-24T17:08:07.873Z,14.33
2017-10-24T17:10:36.172Z,13.73
2017-10-24T17:13:04.448Z,13.17
2017-10-24T17:15:32.712Z,12.53
2017-10-24T17:18:01.087Z,13.27
2017-10-24T17:20:29.461Z,12.50
2017-10-24T17:22:57.755Z,14.43
2017-10-24T17:25:26.033Z,11.20
2017-10-24T17:27:54.416Z,13.50
2017-10-24T17:30:22.688Z,11.57
2017-10-24T17:32:50.981Z,13.20
2017-10-24T17:35:19.266Z,10.73
2017-10-24T17:37:48.333Z,11.73
2017-10-24T17:40:16.612Z,10.63
2017-10-24T17:42:44.906Z,11.40
2017-10-24T17:45:13.976Z,13.80
2017-10-24T17:47:42.352Z,12.53
2017-10-24T17:50:11.237Z,13.20
2017-10-24T17:52:40.373Z,14.50
2017-10-24T17:55:09.441Z,14.90
2017-10-24T17:57:37.754Z,12.93
2017-10-24T18:00:06.028Z,12.27
2017-10-24T18:02:34.362Z,13.63
2017-10-24T18:05:02.742Z,14.93
2017-10-24T18:07:31.020Z,14.00
2017-10-24T18:09:59.297Z,12.70
2017-10-24T18:12:27.618Z,14.13
2017-10-24T18:14:56.692Z,15.03
2017-10-24T18:17:24.993Z,12.70
2017-10-24T18:19:54.046Z,11.67
2017-10-24T18:22:22.347Z,16.13
2017-10-24T18:24:51.398Z,15.00
2017-10-24T18:27:19.704Z,13.03
2017-10-24T18:29:48.012Z,12.57
2017-10-24T18:32:17.069Z,13.73
2017-10-24T18:34:46.106Z,11.93
2017-10-24T18:37:14.404Z,11.27
2017-10-24T18:39:42.692Z,10.20
2017-10-24T18:42:11.023Z,13.30
2017-10-24T18:44:40.081Z,11.73
2017-10-24T18:47:08.374Z,14.67
2017-10-24T18:49:36.652Z,13.47
2017-10-24T18:52:05.022Z,11.67
2017-10-24T18:54:33.320Z,12.33
2017-10-24T18:57:01.704Z,12.80
2017-10-24T18:59:30.065Z,12.20
2017-10-24T19:01:58.369Z,13.30
2017-10-24T19:04:27.400Z,12.70
2017-10-24T19:06:55.700Z,16.77
2017-10-24T19:09:23.981Z,9.37
2017-10-24T19:11:52.284Z,11.67
2017-10-24T19:14:21.320Z,11.10
2017-10-24T19:16:49.609Z,12.70
2017-10-24T19:19:17.906Z,12.20
2017-10-24T19:21:46.753Z,11.47
2017-10-24T19:24:15.902Z,11.70
2017-10-24T19:26:44.213Z,12.33
2017-10-24T19:29:13.294Z,13.73
2017-10-24T19:31:41.584Z,12.10
2017-10-24T19:34:10.616Z,12.00
2017-10-24T19:36:38.930Z,8.87
2017-10-24T19:39:07.202Z,12.90
2017-10-24T19:41:35.596Z,15.83
2017-10-24T19:44:03.871Z,11.67
2017-10-24T19:46:32.339Z,12.17
2017-10-24T19:49:00.618Z,9.60
2017-10-24T19:51:28.873Z,7.90
2017-10-24T19:53:57.167Z,10.67
2017-10-24T19:56:25.453Z,7.87
2017-10-24T19:58:53.760Z,9.23
2017-10-24T20:01:22.410Z,7.03
2017-10-24T20:03:50.671Z,9.80
2017-10-24T20:06:18.953Z,10.53
2017-10-24T20:08:47.253Z,12.00
2017-10-24T20:11:15.530Z,7.17
2017-10-24T20:13:43.810Z,6.97
2017-10-24T20:16:12.169Z,10.93
2017-10-24T20:18:40.454Z,8.80
2017-10-24T20:21:08.722Z,7.13
2017-10-24T20:23:37.005Z,8.00
2017-10-24T20:26:05.317Z,10.80
2017-10-24T20:28:34.380Z,7.20
2017-10-24T20:31:02.683Z,5.70
2017-10-24T20:33:31.048Z,7.27
2017-10-24T20:36:00.077Z,6.77
2017-10-24T20:38:28.357Z,8.90
2017-10-24T20:40:56.650Z,8.00
2017-10-24T20:43:24.974Z,6.60
2017-10-24T20:45:53.275Z,8.20
2017-10-24T20:48:21.827Z,8.50
2017-10-24T20:50:50.624Z,5.30
2017-10-24T20:53:18.953Z,8.97
2017-10-24T20:55:47.223Z,7.90
2017-10-24T20:58:15.552Z,7.47
2017-10-24T21:00:43.826Z,8.47
2017-10-24T21:03:12.113Z,7.33
2017-10-24T21:05:40.367Z,7.97
2017-10-24T21:08:08.755Z,6.63
2017-10-24T21:10:37.026Z,6.40
2017-10-24T21:13:05.318Z,17.17
2017-10-24T21:15:34.007Z,38.20
2017-10-24T21:18:03.730Z,17.30
2017-10-24T21:20:32.601Z,15.47
2017-10-24T21:23:01.721Z,26.27
2017-10-24T21:25:30.796Z,12.00
2017-10-24T21:27:59.899Z,9.17
2017-10-24T21:30:28.273Z,8.73
2017-10-24T21:32:56.546Z,9.43
2017-10-24T21:35:24.806Z,12.77
2017-10-24T21:37:53.207Z,11.53
2017-10-24T21:40:21.462Z,13.33
2017-10-24T21:42:49.881Z,14.60
2017-10-24T21:45:18.240Z,9.70
2017-10-24T21:47:46.521Z,8.03
2017-10-24T21:50:14.831Z,7.60
2017-10-24T21:52:43.913Z,5.97
2017-10-24T21:55:12.945Z,7.63
2017-10-24T21:57:41.277Z,7.50
2017-10-24T22:00:09.546Z,5.80
2017-10-24T22:02:37.841Z,6.40
2017-10-24T22:05:06.192Z,7.33
2017-10-24T22:07:34.473Z,6.70
2017-10-24T22:10:02.746Z,7.53
2017-10-24T22:12:31.038Z,5.17
2017-10-24T22:15:00.105Z,5.17
2017-10-24T22:17:28.485Z,6.20
2017-10-24T22:19:56.869Z,5.47
2017-10-24T22:22:25.136Z,7.23
2017-10-24T22:24:53.526Z,5.70
2017-10-24T22:27:22.684Z,9.30
2017-10-24T22:29:50.970Z,12.50
2017-10-24T22:32:19.238Z,6.03
2017-10-24T22:34:47.529Z,6.70
2017-10-24T22:37:15.935Z,10.27
2017-10-24T22:39:45.741Z,11.43
2017-10-24T22:42:14.019Z,5.90
2017-10-24T22:44:42.429Z,5.67
2017-10-24T22:47:11.489Z,9.63
2017-10-24T22:49:39.881Z,7.77
2017-10-24T22:52:08.274Z,10.63
2017-10-24T22:54:36.601Z,13.40
2017-10-24T22:57:04.914Z,11.77
2017-10-24T22:59:33.204Z,8.90
2017-10-24T23:02:01.573Z,10.87
2017-10-24T23:04:29.864Z,7.20
2017-10-24T23:06:58.129Z,8.53
2017-10-24T23:09:28.034Z,9.90
2017-10-24T23:11:56.321Z,9.07
2017-10-24T23:14:24.604Z,10.53
2017-10-24T23:16:52.879Z,9.03
2017-10-24T23:19:21.209Z,9.47
2017-10-24T23:21:49.479Z,10.50
2017-10-24T23:24:17.753Z,7.40
2017-10-24T23:26:46.020Z,10.60
2017-10-24T23:29:14.357Z,11.37
2017-10-24T23:31:42.743Z,8.43
2017-10-24T23:34:11.009Z,8.93
2017-10-24T23:36:39.281Z,9.70
2017-10-24T23:39:07.570Z,38.37
2017-10-24T23:41:35.862Z,13.30
2017-10-24T23:44:04.222Z,9.60
2017-10-24T23:46:32.493Z,10.40
2017-10-24T23:49:00.777Z,10.87
2017-10-24T23:51:29.837Z,13.83
2017-10-24T23:53:58.114Z,10.17
2017-10-24T23:56:26.386Z,11.20
2017-10-24T23:58:54.685Z,13.50
